VIA003 SBEG-SVMI
Flight info
| Callsign | VIA003 |
|---|---|
| Flight time | 2h 13m |
| Altitude | 34000 |
| Route | ASDOB UM417 CBC NETSI1 |
| Aircraft | MD11/H-SDE1E2E3FGHIJ2J3J4J5M1RWXY/LB1D1 |
Departure
| Time | 2026-05-04 20:33 |
|---|---|
| Airport | Eduardo Gomes International Airport (SBEG) |
Arrival
| Time | 2026-05-04 22:46 |
|---|---|
| Airport | Maiquetía Simón Bolívar International Airport (SVMI) |
| Time | Latitude | Longitude | Altitude | Speed | Heading |
|---|---|---|---|---|---|
| 2026-05-04 20:05 | -3.03138 | -60.03997 | 273 ft | 0 kts | 346° |
| 2026-05-04 20:09 | -3.03139 | -60.03997 | 273 ft | 1 kts | 346° |
| 2026-05-04 20:09 | -3.03153 | -60.03994 | 273 ft | 2 kts | 346° |
| 2026-05-04 20:10 | -3.03167 | -60.03990 | 273 ft | 2 kts | 346° |
| 2026-05-04 20:10 | -3.03182 | -60.03987 | 273 ft | 2 kts | 346° |
| 2026-05-04 20:10 | -3.03192 | -60.03984 | 273 ft | 2 kts | 335° |
| 2026-05-04 20:10 | -3.03202 | -60.03974 | 273 ft | 2 kts | 288° |
| 2026-05-04 20:11 | -3.03203 | -60.03962 | 273 ft | 0 kts | 256° |
| 2026-05-04 20:11 | -3.03202 | -60.03958 | 273 ft | 0 kts | 255° |
| 2026-05-04 20:13 | -3.03203 | -60.03961 | 273 ft | 2 kts | 255° |
| 2026-05-04 20:13 | -3.03209 | -60.03986 | 273 ft | 4 kts | 256° |
| 2026-05-04 20:13 | -3.03217 | -60.04018 | 273 ft | 5 kts | 256° |
| 2026-05-04 20:13 | -3.03226 | -60.04055 | 273 ft | 5 kts | 256° |
| 2026-05-04 20:14 | -3.03237 | -60.04098 | 273 ft | 6 kts | 256° |
| 2026-05-04 20:14 | -3.03250 | -60.04147 | 273 ft | 7 kts | 256° |
| 2026-05-04 20:14 | -3.03264 | -60.04200 | 273 ft | 8 kts | 253° |
| 2026-05-04 20:14 | -3.03280 | -60.04259 | 273 ft | 9 kts | 256° |
| 2026-05-04 20:15 | -3.03295 | -60.04323 | 273 ft | 9 kts | 255° |
| 2026-05-04 20:15 | -3.03333 | -60.04376 | 273 ft | 10 kts | 199° |
| 2026-05-04 20:15 | -3.03406 | -60.04370 | 273 ft | 10 kts | 167° |
| 2026-05-04 20:15 | -3.03475 | -60.04339 | 273 ft | 11 kts | 141° |
| 2026-05-04 20:16 | -3.03537 | -60.04288 | 273 ft | 11 kts | 139° |
| 2026-05-04 20:16 | -3.03590 | -60.04223 | 273 ft | 12 kts | 126° |
| 2026-05-04 20:16 | -3.03611 | -60.04170 | 273 ft | 6 kts | 102° |
| 2026-05-04 20:16 | -3.03626 | -60.04077 | 273 ft | 19 kts | 102° |
| 2026-05-04 20:17 | -3.03660 | -60.03943 | 273 ft | 20 kts | 102° |
| 2026-05-04 20:17 | -3.03685 | -60.03804 | 273 ft | 20 kts | 87° |
| 2026-05-04 20:17 | -3.03684 | -60.03703 | 273 ft | 5 kts | 103° |
| 2026-05-04 20:17 | -3.03698 | -60.03704 | 273 ft | 2 kts | 246° |
| 2026-05-04 20:18 | -3.03699 | -60.03716 | 273 ft | 0 kts | 274° |
| 2026-05-04 20:29 | -3.03699 | -60.03717 | 273 ft | 0 kts | 274° |
| 2026-05-04 20:29 | -3.03698 | -60.03728 | 273 ft | 3 kts | 274° |
| 2026-05-04 20:30 | -3.03695 | -60.03759 | 273 ft | 4 kts | 274° |
| 2026-05-04 20:30 | -3.03694 | -60.03794 | 273 ft | 2 kts | 253° |
| 2026-05-04 20:30 | -3.03714 | -60.03796 | 273 ft | 4 kts | 160° |
| 2026-05-04 20:30 | -3.03742 | -60.03783 | 273 ft | 4 kts | 151° |
| 2026-05-04 20:31 | -3.03772 | -60.03767 | 273 ft | 5 kts | 160° |
| 2026-05-04 20:31 | -3.03810 | -60.03763 | 273 ft | 5 kts | 181° |
| 2026-05-04 20:31 | -3.03849 | -60.03773 | 273 ft | 5 kts | 216° |
| 2026-05-04 20:31 | -3.03862 | -60.03820 | 273 ft | 11 kts | 268° |
| 2026-05-04 20:32 | -3.03865 | -60.04036 | 273 ft | 64 kts | 270° |
| 2026-05-04 20:32 | -3.03863 | -60.04729 | 273 ft | 131 kts | 270° |
| 2026-05-04 20:32 | -3.03856 | -60.05830 | 309 ft | 179 kts | 270° |
| 2026-05-04 20:32 | -3.03843 | -60.07068 | 773 ft | 179 kts | 273° |
| 2026-05-04 20:33 | -3.03817 | -60.08345 | 1166 ft | 192 kts | 271° |
| 2026-05-04 20:33 | -3.03832 | -60.09757 | 1492 ft | 212 kts | 271° |
| 2026-05-04 20:33 | -3.03851 | -60.11294 | 1807 ft | 233 kts | 271° |
| 2026-05-04 20:33 | -3.03482 | -60.12891 | 2209 ft | 240 kts | 303° |
| 2026-05-04 20:34 | -3.02317 | -60.14080 | 2709 ft | 246 kts | 335° |
| 2026-05-04 20:34 | -3.00684 | -60.14515 | 3391 ft | 246 kts | 6° |
| 2026-05-04 20:34 | -2.98989 | -60.14217 | 4035 ft | 251 kts | 20° |
| 2026-05-04 20:34 | -2.97322 | -60.13657 | 4670 ft | 260 kts | 21° |
| 2026-05-04 20:35 | -2.95572 | -60.13086 | 5403 ft | 268 kts | 22° |
| 2026-05-04 20:35 | -2.93933 | -60.12248 | 6251 ft | 266 kts | 37° |
| 2026-05-04 20:35 | -2.92246 | -60.11395 | 7048 ft | 273 kts | 18° |
| 2026-05-04 20:35 | -2.90369 | -60.11048 | 7843 ft | 279 kts | 9° |
| 2026-05-04 20:36 | -2.88434 | -60.10815 | 8638 ft | 282 kts | 12° |
| 2026-05-04 20:36 | -2.86517 | -60.10489 | 9444 ft | 284 kts | 15° |
| 2026-05-04 20:36 | -2.84524 | -60.10289 | 10192 ft | 290 kts | 356° |
| 2026-05-04 20:36 | -2.82529 | -60.10688 | 10746 ft | 304 kts | 349° |
| 2026-05-04 20:37 | -2.80381 | -60.11225 | 10845 ft | 332 kts | 351° |
| 2026-05-04 20:37 | -2.78001 | -60.11678 | 10971 ft | 360 kts | 355° |
| 2026-05-04 20:37 | -2.75426 | -60.11985 | 11082 ft | 386 kts | 358° |
| 2026-05-04 20:37 | -2.72683 | -60.12196 | 11653 ft | 398 kts | 358° |
| 2026-05-04 20:38 | -2.69868 | -60.12389 | 12390 ft | 407 kts | 358° |
| 2026-05-04 20:38 | -2.66999 | -60.12595 | 13158 ft | 414 kts | 358° |
| 2026-05-04 20:38 | -2.64107 | -60.12811 | 13935 ft | 419 kts | 358° |
| 2026-05-04 20:38 | -2.61173 | -60.13032 | 14662 ft | 426 kts | 358° |
| 2026-05-04 20:39 | -2.58197 | -60.13258 | 15400 ft | 431 kts | 358° |
| 2026-05-04 20:39 | -2.55179 | -60.13486 | 16118 ft | 436 kts | 358° |
| 2026-05-04 20:39 | -2.52117 | -60.13715 | 16799 ft | 442 kts | 358° |
| 2026-05-04 20:39 | -2.49066 | -60.13937 | 17458 ft | 447 kts | 358° |
| 2026-05-04 20:40 | -2.45917 | -60.14168 | 18118 ft | 452 kts | 358° |
| 2026-05-04 20:40 | -2.42765 | -60.14402 | 18752 ft | 457 kts | 358° |
| 2026-05-04 20:40 | -2.39568 | -60.14638 | 19395 ft | 462 kts | 357° |
| 2026-05-04 20:40 | -2.36352 | -60.14871 | 20037 ft | 466 kts | 357° |
| 2026-05-04 20:41 | -2.33100 | -60.15113 | 20655 ft | 470 kts | 357° |
| 2026-05-04 20:41 | -2.29798 | -60.15358 | 21276 ft | 474 kts | 357° |
| 2026-05-04 20:41 | -2.26483 | -60.15601 | 21863 ft | 479 kts | 357° |
| 2026-05-04 20:41 | -2.23125 | -60.15846 | 22448 ft | 483 kts | 357° |
| 2026-05-04 20:42 | -2.19762 | -60.16096 | 23004 ft | 487 kts | 357° |
| 2026-05-04 20:42 | -2.16323 | -60.16350 | 23578 ft | 491 kts | 357° |
| 2026-05-04 20:42 | -2.12892 | -60.16600 | 24122 ft | 496 kts | 357° |
| 2026-05-04 20:42 | -2.09442 | -60.16855 | 24648 ft | 500 kts | 357° |
| 2026-05-04 20:43 | -2.05924 | -60.17115 | 25172 ft | 505 kts | 357° |
| 2026-05-04 20:43 | -2.02399 | -60.17374 | 25656 ft | 509 kts | 357° |
| 2026-05-04 20:43 | -1.98854 | -60.17633 | 26148 ft | 514 kts | 357° |
| 2026-05-04 20:43 | -1.95292 | -60.17895 | 26680 ft | 517 kts | 357° |
| 2026-05-04 20:44 | -1.91664 | -60.18166 | 27202 ft | 520 kts | 357° |
| 2026-05-04 20:44 | -1.88012 | -60.18435 | 27869 ft | 520 kts | 358° |
| 2026-05-04 20:44 | -1.84402 | -60.18715 | 28542 ft | 520 kts | 355° |
| 2026-05-04 20:44 | -1.80852 | -60.19298 | 29275 ft | 519 kts | 348° |
| 2026-05-04 20:45 | -1.77403 | -60.20345 | 30022 ft | 518 kts | 340° |
| 2026-05-04 20:45 | -1.74102 | -60.21816 | 30774 ft | 517 kts | 334° |
| 2026-05-04 20:45 | -1.70925 | -60.23479 | 31479 ft | 514 kts | 333° |
| 2026-05-04 20:45 | -1.67809 | -60.25177 | 32131 ft | 512 kts | 332° |
| 2026-05-04 20:46 | -1.64665 | -60.26880 | 32835 ft | 509 kts | 333° |
| 2026-05-04 20:46 | -1.61460 | -60.28562 | 33569 ft | 505 kts | 333° |
| 2026-05-04 20:46 | -1.58309 | -60.30183 | 33949 ft | 506 kts | 334° |
| 2026-05-04 20:46 | -1.55175 | -60.31783 | 33896 ft | 503 kts | 334° |
| 2026-05-04 20:47 | -1.48992 | -60.34944 | 33942 ft | 498 kts | 334° |
| 2026-05-04 20:47 | -1.42827 | -60.38137 | 33958 ft | 499 kts | 334° |
| 2026-05-04 20:48 | -1.36627 | -60.41311 | 33960 ft | 500 kts | 334° |
| 2026-05-04 20:48 | -1.30414 | -60.44526 | 33963 ft | 500 kts | 334° |
| 2026-05-04 20:49 | -1.24198 | -60.47715 | 33967 ft | 501 kts | 333° |
| 2026-05-04 20:49 | -1.18028 | -60.50909 | 33965 ft | 500 kts | 333° |
| 2026-05-04 20:50 | -1.11778 | -60.54129 | 33962 ft | 501 kts | 334° |
| 2026-05-04 20:50 | -1.05558 | -60.57326 | 33963 ft | 502 kts | 333° |
| 2026-05-04 20:51 | -0.99365 | -60.60518 | 33966 ft | 502 kts | 334° |
| 2026-05-04 20:51 | -0.93129 | -60.63718 | 33963 ft | 503 kts | 333° |
| 2026-05-04 20:52 | -0.87923 | -60.66406 | 33957 ft | 502 kts | 333° |
| 2026-05-04 20:52 | -0.80666 | -60.70131 | 33955 ft | 503 kts | 333° |
| 2026-05-04 20:53 | -0.74427 | -60.73348 | 33953 ft | 503 kts | 333° |
| 2026-05-04 20:53 | -0.68183 | -60.76555 | 33956 ft | 503 kts | 333° |
| 2026-05-04 20:54 | -0.61946 | -60.79770 | 33954 ft | 504 kts | 333° |
| 2026-05-04 20:54 | -0.55691 | -60.82980 | 33952 ft | 504 kts | 333° |
| 2026-05-04 20:55 | -0.49460 | -60.86195 | 33951 ft | 503 kts | 333° |
| 2026-05-04 20:55 | -0.43226 | -60.89393 | 33952 ft | 502 kts | 333° |
| 2026-05-04 20:56 | -0.37008 | -60.92600 | 33952 ft | 502 kts | 333° |
| 2026-05-04 20:56 | -0.30781 | -60.95794 | 33953 ft | 502 kts | 333° |
| 2026-05-04 20:57 | -0.24534 | -60.99016 | 33952 ft | 503 kts | 333° |
| 2026-05-04 20:57 | -0.18313 | -61.02208 | 33951 ft | 504 kts | 333° |
| 2026-05-04 20:58 | -0.12059 | -61.05431 | 33951 ft | 503 kts | 333° |
| 2026-05-04 20:58 | -0.05845 | -61.08622 | 33952 ft | 502 kts | 333° |
| 2026-05-04 20:59 | 0.00369 | -61.11823 | 33951 ft | 501 kts | 333° |
| 2026-05-04 20:59 | 0.06608 | -61.15028 | 33953 ft | 501 kts | 333° |
| 2026-05-04 21:00 | 0.12820 | -61.18229 | 33957 ft | 501 kts | 333° |
| 2026-05-04 21:00 | 0.19022 | -61.21411 | 33914 ft | 502 kts | 333° |
| 2026-05-04 21:01 | 0.25255 | -61.24627 | 33908 ft | 503 kts | 333° |
| 2026-05-04 21:01 | 0.31502 | -61.27830 | 33901 ft | 503 kts | 333° |
| 2026-05-04 21:02 | 0.37737 | -61.31047 | 33896 ft | 503 kts | 333° |
| 2026-05-04 21:02 | 0.43976 | -61.34246 | 33893 ft | 502 kts | 333° |
| 2026-05-04 21:03 | 0.50172 | -61.37444 | 33895 ft | 502 kts | 333° |
| 2026-05-04 21:03 | 0.55393 | -61.40122 | 33883 ft | 501 kts | 333° |
| 2026-05-04 21:04 | 0.62624 | -61.43849 | 33889 ft | 501 kts | 333° |
| 2026-05-04 21:04 | 0.68856 | -61.47049 | 33891 ft | 502 kts | 333° |
| 2026-05-04 21:05 | 0.75055 | -61.50243 | 33891 ft | 502 kts | 333° |
| 2026-05-04 21:05 | 0.81287 | -61.53445 | 33895 ft | 501 kts | 333° |
| 2026-05-04 21:06 | 0.87492 | -61.56640 | 33897 ft | 500 kts | 333° |
| 2026-05-04 21:06 | 0.93697 | -61.59830 | 33897 ft | 500 kts | 333° |
| 2026-05-04 21:07 | 0.99863 | -61.63005 | 33897 ft | 499 kts | 333° |
| 2026-05-04 21:07 | 1.05062 | -61.65676 | 33888 ft | 499 kts | 333° |
| 2026-05-04 21:08 | 1.11214 | -61.68846 | 33883 ft | 499 kts | 333° |
| 2026-05-04 21:08 | 1.18491 | -61.72588 | 33884 ft | 499 kts | 333° |
| 2026-05-04 21:09 | 1.24643 | -61.75759 | 33869 ft | 498 kts | 333° |
| 2026-05-04 21:09 | 1.30846 | -61.78947 | 33872 ft | 499 kts | 333° |
| 2026-05-04 21:10 | 1.37039 | -61.82140 | 33876 ft | 499 kts | 333° |
| 2026-05-04 21:10 | 1.43205 | -61.85307 | 33873 ft | 499 kts | 333° |
| 2026-05-04 21:11 | 1.49420 | -61.88513 | 33889 ft | 501 kts | 333° |
| 2026-05-04 21:11 | 1.55607 | -61.91689 | 33908 ft | 501 kts | 333° |
| 2026-05-04 21:12 | 1.61825 | -61.94899 | 33927 ft | 501 kts | 333° |
| 2026-05-04 21:12 | 1.68041 | -61.98089 | 33941 ft | 501 kts | 333° |
| 2026-05-04 21:13 | 1.74233 | -62.01284 | 33946 ft | 500 kts | 333° |
| 2026-05-04 21:13 | 1.80445 | -62.04478 | 33936 ft | 501 kts | 333° |
| 2026-05-04 21:14 | 1.86678 | -62.07693 | 33935 ft | 502 kts | 333° |
| 2026-05-04 21:14 | 1.92893 | -62.10890 | 33925 ft | 503 kts | 333° |
| 2026-05-04 21:15 | 1.99131 | -62.14106 | 33917 ft | 504 kts | 333° |
| 2026-05-04 21:15 | 2.04341 | -62.16786 | 33915 ft | 504 kts | 333° |
| 2026-05-04 21:16 | 2.11629 | -62.20544 | 33918 ft | 503 kts | 333° |
| 2026-05-04 21:16 | 2.17837 | -62.23737 | 33917 ft | 502 kts | 333° |
| 2026-05-04 21:17 | 2.23042 | -62.26424 | 33912 ft | 502 kts | 333° |
| 2026-05-04 21:17 | 2.30284 | -62.30149 | 33924 ft | 503 kts | 333° |
| 2026-05-04 21:18 | 2.36512 | -62.33358 | 33927 ft | 504 kts | 333° |
| 2026-05-04 21:18 | 2.42791 | -62.36587 | 33924 ft | 505 kts | 333° |
| 2026-05-04 21:19 | 2.48016 | -62.39280 | 33927 ft | 505 kts | 333° |
| 2026-05-04 21:19 | 2.55321 | -62.43036 | 33928 ft | 504 kts | 333° |
| 2026-05-04 21:20 | 2.61565 | -62.46252 | 33927 ft | 504 kts | 333° |
| 2026-05-04 21:20 | 2.67787 | -62.49451 | 33930 ft | 504 kts | 333° |
| 2026-05-04 21:21 | 2.72997 | -62.52137 | 33932 ft | 504 kts | 333° |
| 2026-05-04 21:21 | 2.80302 | -62.55893 | 33934 ft | 505 kts | 333° |
| 2026-05-04 21:22 | 2.85506 | -62.58574 | 33932 ft | 505 kts | 333° |
| 2026-05-04 21:22 | 2.91783 | -62.61802 | 33939 ft | 505 kts | 333° |
| 2026-05-04 21:23 | 2.98046 | -62.65026 | 33939 ft | 505 kts | 333° |
| 2026-05-04 21:23 | 3.05317 | -62.68769 | 33941 ft | 505 kts | 333° |
| 2026-05-04 21:24 | 3.10541 | -62.71462 | 33941 ft | 505 kts | 333° |
| 2026-05-04 21:24 | 3.16805 | -62.74689 | 33938 ft | 505 kts | 333° |
| 2026-05-04 21:25 | 3.24098 | -62.78448 | 33927 ft | 505 kts | 333° |
| 2026-05-04 21:25 | 3.30373 | -62.81683 | 33932 ft | 505 kts | 333° |
| 2026-05-04 21:26 | 3.36633 | -62.84908 | 33938 ft | 505 kts | 333° |
| 2026-05-04 21:26 | 3.41862 | -62.87603 | 33946 ft | 505 kts | 333° |
| 2026-05-04 21:27 | 3.49124 | -62.91345 | 33952 ft | 505 kts | 333° |
| 2026-05-04 21:27 | 3.54339 | -62.94033 | 33964 ft | 504 kts | 332° |
| 2026-05-04 21:28 | 3.60629 | -62.97232 | 33979 ft | 503 kts | 334° |
| 2026-05-04 21:28 | 3.66989 | -63.00082 | 34008 ft | 503 kts | 337° |
| 2026-05-04 21:29 | 3.73449 | -63.02820 | 34030 ft | 503 kts | 336° |
| 2026-05-04 21:29 | 3.80971 | -63.06053 | 34040 ft | 502 kts | 336° |
| 2026-05-04 21:30 | 3.86337 | -63.08363 | 34042 ft | 502 kts | 336° |
| 2026-05-04 21:30 | 3.93860 | -63.11589 | 34034 ft | 502 kts | 336° |
| 2026-05-04 21:31 | 4.02425 | -63.15261 | 34027 ft | 501 kts | 336° |
| 2026-05-04 21:32 | 4.09917 | -63.18473 | 34039 ft | 501 kts | 336° |
| 2026-05-04 21:32 | 4.15315 | -63.20785 | 34054 ft | 501 kts | 336° |
| 2026-05-04 21:33 | 4.22806 | -63.23998 | 34086 ft | 501 kts | 336° |
| 2026-05-04 21:33 | 4.28144 | -63.26283 | 34106 ft | 500 kts | 336° |
| 2026-05-04 21:34 | 4.35609 | -63.29484 | 34117 ft | 500 kts | 336° |
| 2026-05-04 21:34 | 4.40961 | -63.31776 | 34116 ft | 500 kts | 336° |
| 2026-05-04 21:35 | 4.47397 | -63.34540 | 34110 ft | 500 kts | 336° |
| 2026-05-04 21:35 | 4.54858 | -63.37744 | 34108 ft | 498 kts | 336° |
| 2026-05-04 21:36 | 4.60190 | -63.40035 | 34106 ft | 498 kts | 336° |
| 2026-05-04 21:36 | 4.66572 | -63.42780 | 34094 ft | 498 kts | 336° |
| 2026-05-04 21:37 | 4.72920 | -63.45502 | 34082 ft | 498 kts | 336° |
| 2026-05-04 21:37 | 4.79328 | -63.48259 | 34068 ft | 498 kts | 336° |
| 2026-05-04 21:38 | 4.85715 | -63.50998 | 34053 ft | 497 kts | 336° |
| 2026-05-04 21:38 | 4.92062 | -63.53729 | 34042 ft | 497 kts | 336° |
| 2026-05-04 21:39 | 4.98430 | -63.56460 | 34025 ft | 496 kts | 336° |
| 2026-05-04 21:39 | 5.04796 | -63.59199 | 34021 ft | 495 kts | 336° |
| 2026-05-04 21:40 | 5.11168 | -63.61932 | 34022 ft | 495 kts | 336° |
| 2026-05-04 21:40 | 5.17513 | -63.64661 | 34020 ft | 495 kts | 336° |
| 2026-05-04 21:41 | 5.23892 | -63.67403 | 34028 ft | 495 kts | 336° |
| 2026-05-04 21:41 | 5.30213 | -63.70131 | 34028 ft | 496 kts | 336° |
| 2026-05-04 21:42 | 5.36574 | -63.72865 | 34025 ft | 495 kts | 336° |
| 2026-05-04 21:42 | 5.42899 | -63.75595 | 34017 ft | 494 kts | 336° |
| 2026-05-04 21:43 | 5.49250 | -63.78325 | 34014 ft | 493 kts | 336° |
| 2026-05-04 21:43 | 5.55565 | -63.81050 | 34012 ft | 493 kts | 336° |
| 2026-05-04 21:44 | 5.62938 | -63.84219 | 34022 ft | 494 kts | 336° |
| 2026-05-04 21:44 | 5.68180 | -63.86483 | 34035 ft | 494 kts | 336° |
| 2026-05-04 21:45 | 5.74551 | -63.89222 | 34046 ft | 494 kts | 336° |
| 2026-05-04 21:45 | 5.80847 | -63.91939 | 34048 ft | 493 kts | 336° |
| 2026-05-04 21:46 | 5.87173 | -63.94659 | 34038 ft | 492 kts | 336° |
| 2026-05-04 21:46 | 5.93475 | -63.97375 | 34024 ft | 492 kts | 336° |
| 2026-05-04 21:47 | 5.99769 | -64.00091 | 34012 ft | 492 kts | 336° |
| 2026-05-04 21:47 | 6.06046 | -64.02803 | 34001 ft | 492 kts | 336° |
| 2026-05-04 21:48 | 6.12350 | -64.05528 | 33994 ft | 492 kts | 335° |
| 2026-05-04 21:48 | 6.18658 | -64.08252 | 33982 ft | 491 kts | 335° |
| 2026-05-04 21:49 | 6.24967 | -64.10979 | 33980 ft | 490 kts | 335° |
| 2026-05-04 21:49 | 6.31213 | -64.13677 | 33978 ft | 490 kts | 335° |
| 2026-05-04 21:50 | 6.37511 | -64.16396 | 33973 ft | 489 kts | 335° |
| 2026-05-04 21:50 | 6.44820 | -64.19554 | 33967 ft | 487 kts | 335° |
| 2026-05-04 21:51 | 6.50013 | -64.21796 | 33973 ft | 487 kts | 335° |
| 2026-05-04 21:51 | 6.56250 | -64.24496 | 33974 ft | 487 kts | 335° |
| 2026-05-04 21:52 | 6.62470 | -64.27174 | 33972 ft | 486 kts | 335° |
| 2026-05-04 21:52 | 6.68690 | -64.29871 | 33968 ft | 485 kts | 335° |
| 2026-05-04 21:53 | 6.74914 | -64.32551 | 33964 ft | 484 kts | 335° |
| 2026-05-04 21:53 | 6.82116 | -64.35684 | 33965 ft | 483 kts | 335° |
| 2026-05-04 21:54 | 6.87296 | -64.37920 | 33975 ft | 483 kts | 335° |
| 2026-05-04 21:54 | 6.93475 | -64.40608 | 33994 ft | 483 kts | 335° |
| 2026-05-04 21:55 | 6.99685 | -64.43291 | 34020 ft | 483 kts | 335° |
| 2026-05-04 21:55 | 7.05846 | -64.45969 | 34042 ft | 482 kts | 335° |
| 2026-05-04 21:56 | 7.12012 | -64.48634 | 34051 ft | 482 kts | 335° |
| 2026-05-04 21:56 | 7.18201 | -64.51322 | 34049 ft | 482 kts | 335° |
| 2026-05-04 21:57 | 7.24417 | -64.54011 | 34038 ft | 483 kts | 336° |
| 2026-05-04 21:57 | 7.30586 | -64.56688 | 34024 ft | 482 kts | 335° |
| 2026-05-04 21:58 | 7.36765 | -64.59363 | 34012 ft | 483 kts | 335° |
| 2026-05-04 21:58 | 7.42967 | -64.62029 | 33996 ft | 483 kts | 336° |
| 2026-05-04 21:59 | 7.49178 | -64.64703 | 33979 ft | 483 kts | 335° |
| 2026-05-04 21:59 | 7.55381 | -64.67369 | 33963 ft | 483 kts | 335° |
| 2026-05-04 22:00 | 7.61590 | -64.70038 | 33946 ft | 483 kts | 335° |
| 2026-05-04 22:00 | 7.68793 | -64.73134 | 33923 ft | 483 kts | 336° |
| 2026-05-04 22:01 | 7.73973 | -64.75359 | 33905 ft | 483 kts | 335° |
| 2026-05-04 22:01 | 7.80160 | -64.78023 | 33891 ft | 482 kts | 335° |
| 2026-05-04 22:02 | 7.86323 | -64.80666 | 33883 ft | 483 kts | 335° |
| 2026-05-04 22:02 | 7.92510 | -64.83335 | 33877 ft | 483 kts | 335° |
| 2026-05-04 22:03 | 7.98721 | -64.85994 | 33873 ft | 483 kts | 335° |
| 2026-05-04 22:03 | 8.04910 | -64.88665 | 33870 ft | 483 kts | 335° |
| 2026-05-04 22:04 | 8.11028 | -64.91283 | 33873 ft | 483 kts | 336° |
| 2026-05-04 22:04 | 8.17224 | -64.93959 | 33875 ft | 483 kts | 335° |
| 2026-05-04 22:05 | 8.23432 | -64.96638 | 33876 ft | 482 kts | 335° |
| 2026-05-04 22:05 | 8.29456 | -64.99236 | 33881 ft | 481 kts | 335° |
| 2026-05-04 22:06 | 8.35651 | -65.01914 | 33886 ft | 480 kts | 335° |
| 2026-05-04 22:06 | 8.41855 | -65.04582 | 33885 ft | 480 kts | 335° |
| 2026-05-04 22:07 | 8.47994 | -65.07244 | 33887 ft | 480 kts | 335° |
| 2026-05-04 22:07 | 8.54154 | -65.09889 | 33885 ft | 480 kts | 335° |
| 2026-05-04 22:08 | 8.60331 | -65.12569 | 33884 ft | 480 kts | 335° |
| 2026-05-04 22:08 | 8.66457 | -65.15199 | 33885 ft | 479 kts | 335° |
| 2026-05-04 22:09 | 8.72588 | -65.17856 | 33887 ft | 478 kts | 335° |
| 2026-05-04 22:09 | 8.78721 | -65.20495 | 33885 ft | 478 kts | 336° |
| 2026-05-04 22:10 | 8.83178 | -65.22418 | 33884 ft | 477 kts | 335° |
| 2026-05-04 22:10 | 8.89285 | -65.25073 | 33883 ft | 477 kts | 336° |
| 2026-05-04 22:11 | 8.95386 | -65.27706 | 33880 ft | 476 kts | 336° |
| 2026-05-04 22:11 | 9.01511 | -65.30369 | 33881 ft | 476 kts | 335° |
| 2026-05-04 22:12 | 9.07616 | -65.33009 | 33879 ft | 476 kts | 336° |
| 2026-05-04 22:12 | 9.14727 | -65.36094 | 33882 ft | 476 kts | 335° |
| 2026-05-04 22:13 | 9.19786 | -65.38285 | 33875 ft | 475 kts | 336° |
| 2026-05-04 22:13 | 9.25914 | -65.40936 | 33874 ft | 475 kts | 335° |
| 2026-05-04 22:14 | 9.32007 | -65.43582 | 33876 ft | 475 kts | 336° |
| 2026-05-04 22:14 | 9.38096 | -65.46213 | 33880 ft | 475 kts | 335° |
| 2026-05-04 22:15 | 9.44151 | -65.48844 | 33885 ft | 475 kts | 335° |
| 2026-05-04 22:15 | 9.50260 | -65.51482 | 33890 ft | 474 kts | 336° |
| 2026-05-04 22:16 | 9.56332 | -65.54124 | 33889 ft | 474 kts | 335° |
| 2026-05-04 22:16 | 9.62400 | -65.56741 | 33891 ft | 473 kts | 335° |
| 2026-05-04 22:17 | 9.68445 | -65.59380 | 33899 ft | 473 kts | 335° |
| 2026-05-04 22:17 | 9.74519 | -65.62034 | 33895 ft | 473 kts | 335° |
| 2026-05-04 22:18 | 9.80599 | -65.64666 | 33906 ft | 474 kts | 335° |
| 2026-05-04 22:18 | 9.86637 | -65.67304 | 33919 ft | 473 kts | 335° |
| 2026-05-04 22:19 | 9.92713 | -65.69937 | 33930 ft | 472 kts | 335° |
| 2026-05-04 22:19 | 9.98788 | -65.72590 | 33949 ft | 472 kts | 335° |
| 2026-05-04 22:20 | 10.04779 | -65.75279 | 33961 ft | 473 kts | 333° |
| 2026-05-04 22:20 | 10.10653 | -65.78364 | 33952 ft | 472 kts | 330° |
| 2026-05-04 22:20 | 10.13521 | -65.79997 | 33536 ft | 474 kts | 329° |
| 2026-05-04 22:21 | 10.16368 | -65.81639 | 32964 ft | 469 kts | 329° |
| 2026-05-04 22:21 | 10.19209 | -65.83266 | 32442 ft | 464 kts | 329° |
| 2026-05-04 22:21 | 10.21988 | -65.84838 | 31973 ft | 458 kts | 329° |
| 2026-05-04 22:21 | 10.24760 | -65.86405 | 31495 ft | 453 kts | 329° |
| 2026-05-04 22:22 | 10.27488 | -65.87965 | 31019 ft | 447 kts | 329° |
| 2026-05-04 22:22 | 10.30190 | -65.89518 | 30535 ft | 442 kts | 329° |
| 2026-05-04 22:22 | 10.32850 | -65.91032 | 30065 ft | 437 kts | 329° |
| 2026-05-04 22:22 | 10.35522 | -65.92543 | 29578 ft | 432 kts | 329° |
| 2026-05-04 22:23 | 10.38112 | -65.94017 | 29117 ft | 427 kts | 329° |
| 2026-05-04 22:23 | 10.40714 | -65.95510 | 28645 ft | 423 kts | 329° |
| 2026-05-04 22:23 | 10.43258 | -65.96965 | 28206 ft | 420 kts | 329° |
| 2026-05-04 22:23 | 10.45809 | -65.98412 | 27767 ft | 417 kts | 330° |
| 2026-05-04 22:24 | 10.48359 | -65.99856 | 27319 ft | 414 kts | 330° |
| 2026-05-04 22:24 | 10.50837 | -66.01273 | 26886 ft | 411 kts | 330° |
| 2026-05-04 22:24 | 10.53330 | -66.02703 | 26444 ft | 408 kts | 330° |
| 2026-05-04 22:24 | 10.55722 | -66.04188 | 26002 ft | 405 kts | 323° |
| 2026-05-04 22:25 | 10.57900 | -66.06043 | 25589 ft | 402 kts | 315° |
| 2026-05-04 22:25 | 10.59719 | -66.08154 | 25144 ft | 400 kts | 308° |
| 2026-05-04 22:25 | 10.61345 | -66.10439 | 24693 ft | 398 kts | 306° |
| 2026-05-04 22:25 | 10.62927 | -66.12764 | 24245 ft | 396 kts | 306° |
| 2026-05-04 22:26 | 10.64503 | -66.15064 | 23785 ft | 394 kts | 307° |
| 2026-05-04 22:26 | 10.66087 | -66.17315 | 23349 ft | 391 kts | 307° |
| 2026-05-04 22:26 | 10.67675 | -66.19544 | 22911 ft | 388 kts | 308° |
| 2026-05-04 22:26 | 10.69241 | -66.21732 | 22460 ft | 386 kts | 308° |
| 2026-05-04 22:27 | 10.70821 | -66.23935 | 22031 ft | 383 kts | 308° |
| 2026-05-04 22:27 | 10.72397 | -66.26134 | 21744 ft | 382 kts | 308° |
| 2026-05-04 22:27 | 10.73957 | -66.28325 | 21303 ft | 382 kts | 307° |
| 2026-05-04 22:27 | 10.75490 | -66.30496 | 20915 ft | 380 kts | 308° |
| 2026-05-04 22:28 | 10.77047 | -66.32689 | 20541 ft | 380 kts | 308° |
| 2026-05-04 22:28 | 10.78591 | -66.34849 | 20155 ft | 382 kts | 308° |
| 2026-05-04 22:28 | 10.80077 | -66.37089 | 19750 ft | 384 kts | 299° |
| 2026-05-04 22:28 | 10.81026 | -66.39625 | 19418 ft | 386 kts | 283° |
| 2026-05-04 22:29 | 10.81235 | -66.42336 | 18965 ft | 392 kts | 266° |
| 2026-05-04 22:29 | 10.80831 | -66.45081 | 18526 ft | 391 kts | 259° |
| 2026-05-04 22:29 | 10.80230 | -66.47786 | 18064 ft | 392 kts | 257° |
| 2026-05-04 22:29 | 10.79638 | -66.50479 | 17627 ft | 392 kts | 258° |
| 2026-05-04 22:30 | 10.79104 | -66.53198 | 17189 ft | 391 kts | 259° |
| 2026-05-04 22:30 | 10.78620 | -66.55915 | 16746 ft | 390 kts | 260° |
| 2026-05-04 22:30 | 10.78157 | -66.58633 | 16328 ft | 388 kts | 260° |
| 2026-05-04 22:30 | 10.77705 | -66.61322 | 15905 ft | 386 kts | 260° |
| 2026-05-04 22:31 | 10.77252 | -66.63995 | 15487 ft | 384 kts | 260° |
| 2026-05-04 22:31 | 10.76790 | -66.66670 | 15055 ft | 382 kts | 259° |
| 2026-05-04 22:31 | 10.76325 | -66.69315 | 14635 ft | 379 kts | 259° |
| 2026-05-04 22:31 | 10.75868 | -66.71944 | 14292 ft | 376 kts | 259° |
| 2026-05-04 22:32 | 10.75424 | -66.74545 | 13883 ft | 375 kts | 259° |
| 2026-05-04 22:32 | 10.74978 | -66.77147 | 13477 ft | 373 kts | 259° |
| 2026-05-04 22:32 | 10.74526 | -66.79739 | 13070 ft | 371 kts | 259° |
| 2026-05-04 22:32 | 10.74074 | -66.82330 | 12668 ft | 369 kts | 259° |
| 2026-05-04 22:33 | 10.73638 | -66.84861 | 12284 ft | 367 kts | 259° |
| 2026-05-04 22:33 | 10.73202 | -66.87423 | 11884 ft | 365 kts | 259° |
| 2026-05-04 22:33 | 10.72831 | -66.89968 | 11525 ft | 359 kts | 264° |
| 2026-05-04 22:33 | 10.72672 | -66.92477 | 11144 ft | 356 kts | 268° |
| 2026-05-04 22:34 | 10.72663 | -66.94961 | 10669 ft | 355 kts | 270° |
| 2026-05-04 22:34 | 10.72707 | -66.97458 | 10154 ft | 353 kts | 270° |
| 2026-05-04 22:34 | 10.72743 | -66.99907 | 9989 ft | 336 kts | 270° |
| 2026-05-04 22:34 | 10.72753 | -67.02227 | 9979 ft | 321 kts | 269° |
| 2026-05-04 22:35 | 10.72747 | -67.04475 | 9811 ft | 315 kts | 269° |
| 2026-05-04 22:35 | 10.72734 | -67.06665 | 9328 ft | 313 kts | 269° |
| 2026-05-04 22:35 | 10.72720 | -67.08843 | 8843 ft | 303 kts | 269° |
| 2026-05-04 22:35 | 10.72709 | -67.10954 | 8397 ft | 295 kts | 269° |
| 2026-05-04 22:36 | 10.72701 | -67.13023 | 7973 ft | 285 kts | 269° |
| 2026-05-04 22:36 | 10.72695 | -67.15002 | 7580 ft | 278 kts | 269° |
| 2026-05-04 22:36 | 10.72691 | -67.16963 | 7228 ft | 278 kts | 269° |
| 2026-05-04 22:36 | 10.72688 | -67.18912 | 6847 ft | 277 kts | 269° |
| 2026-05-04 22:37 | 10.72685 | -67.20886 | 6818 ft | 279 kts | 269° |
| 2026-05-04 22:37 | 10.72689 | -67.22875 | 6437 ft | 281 kts | 269° |
| 2026-05-04 22:37 | 10.72702 | -67.24849 | 6017 ft | 278 kts | 265° |
| 2026-05-04 22:37 | 10.72267 | -67.26715 | 5663 ft | 267 kts | 237° |
| 2026-05-04 22:38 | 10.71083 | -67.28120 | 5305 ft | 259 kts | 209° |
| 2026-05-04 22:38 | 10.69521 | -67.28855 | 4989 ft | 240 kts | 192° |
| 2026-05-04 22:38 | 10.67913 | -67.29185 | 4814 ft | 229 kts | 184° |
| 2026-05-04 22:38 | 10.66380 | -67.29340 | 4743 ft | 218 kts | 181° |
| 2026-05-04 22:39 | 10.64841 | -67.29421 | 4535 ft | 216 kts | 179° |
| 2026-05-04 22:39 | 10.63343 | -67.29469 | 4393 ft | 216 kts | 178° |
| 2026-05-04 22:39 | 10.61837 | -67.29469 | 4275 ft | 215 kts | 169° |
| 2026-05-04 22:39 | 10.60494 | -67.28920 | 4249 ft | 205 kts | 141° |
| 2026-05-04 22:40 | 10.59666 | -67.27759 | 4264 ft | 204 kts | 108° |
| 2026-05-04 22:40 | 10.59429 | -67.26339 | 4230 ft | 205 kts | 92° |
| 2026-05-04 22:40 | 10.59469 | -67.24905 | 4112 ft | 198 kts | 87° |
| 2026-05-04 22:40 | 10.59588 | -67.23536 | 4070 ft | 195 kts | 86° |
| 2026-05-04 22:41 | 10.59701 | -67.22164 | 4027 ft | 193 kts | 87° |
| 2026-05-04 22:41 | 10.59783 | -67.20791 | 3790 ft | 195 kts | 88° |
| 2026-05-04 22:41 | 10.59834 | -67.19421 | 3568 ft | 193 kts | 89° |
| 2026-05-04 22:41 | 10.59869 | -67.18057 | 3323 ft | 193 kts | 89° |
| 2026-05-04 22:42 | 10.59900 | -67.16715 | 3064 ft | 189 kts | 89° |
| 2026-05-04 22:42 | 10.59933 | -67.15431 | 2831 ft | 173 kts | 89° |
| 2026-05-04 22:42 | 10.59969 | -67.14245 | 2657 ft | 161 kts | 89° |
| 2026-05-04 22:42 | 10.60004 | -67.13084 | 2440 ft | 167 kts | 89° |
| 2026-05-04 22:43 | 10.60041 | -67.11923 | 2234 ft | 166 kts | 88° |
| 2026-05-04 22:43 | 10.60076 | -67.10758 | 2026 ft | 162 kts | 89° |
| 2026-05-04 22:43 | 10.60110 | -67.09619 | 1831 ft | 159 kts | 89° |
| 2026-05-04 22:43 | 10.60148 | -67.08524 | 1633 ft | 154 kts | 88° |
| 2026-05-04 22:44 | 10.60179 | -67.07434 | 1473 ft | 155 kts | 90° |
| 2026-05-04 22:44 | 10.60190 | -67.06302 | 1247 ft | 161 kts | 90° |
| 2026-05-04 22:44 | 10.60225 | -67.05169 | 1035 ft | 164 kts | 88° |
| 2026-05-04 22:44 | 10.60293 | -67.03992 | 823 ft | 166 kts | 89° |
| 2026-05-04 22:45 | 10.60336 | -67.02811 | 578 ft | 170 kts | 91° |
| 2026-05-04 22:45 | 10.60396 | -67.00415 | 316 ft | 167 kts | 86° |
| 2026-05-04 22:45 | 10.60433 | -66.99475 | 286 ft | 84 kts | 88° |
| 2026-05-04 22:46 | 10.60444 | -66.99167 | 271 ft | 17 kts | 93° |
| 2026-05-04 22:46 | 10.60354 | -66.99113 | 271 ft | 16 kts | 181° |
| 2026-05-04 22:46 | 10.60278 | -66.99173 | 275 ft | 14 kts | 258° |
| 2026-05-04 22:46 | 10.60273 | -66.99262 | 280 ft | 11 kts | 268° |
| 2026-05-04 22:47 | 10.60271 | -66.99333 | 283 ft | 9 kts | 268° |
| 2026-05-04 22:47 | 10.60268 | -66.99403 | 286 ft | 10 kts | 268° |
| 2026-05-04 22:47 | 10.60266 | -66.99488 | 290 ft | 14 kts | 268° |
| 2026-05-04 22:47 | 10.60262 | -66.99598 | 296 ft | 17 kts | 268° |
| 2026-05-04 22:48 | 10.60257 | -66.99737 | 300 ft | 21 kts | 268° |
| 2026-05-04 22:48 | 10.60252 | -66.99905 | 307 ft | 25 kts | 268° |
| 2026-05-04 22:48 | 10.60246 | -67.00098 | 311 ft | 26 kts | 268° |
| 2026-05-04 22:48 | 10.60242 | -67.00251 | 314 ft | 16 kts | 268° |
| 2026-05-04 22:49 | 10.60167 | -67.00307 | 316 ft | 15 kts | 177° |
| 2026-05-04 22:49 | 10.60062 | -67.00302 | 317 ft | 11 kts | 178° |
| 2026-05-04 22:49 | 10.60004 | -67.00335 | 318 ft | 10 kts | 258° |
| 2026-05-04 22:49 | 10.59998 | -67.00413 | 318 ft | 11 kts | 268° |
| 2026-05-04 22:50 | 10.59995 | -67.00501 | 318 ft | 13 kts | 268° |
| 2026-05-04 22:50 | 10.60005 | -67.00583 | 317 ft | 11 kts | 310° |
| 2026-05-04 22:50 | 10.60081 | -67.00612 | 316 ft | 7 kts | 355° |
| 2026-05-04 22:50 | 10.60107 | -67.00614 | 316 ft | 1 kts | 355° |
| 2026-05-04 22:51 | 10.60110 | -67.00614 | 316 ft | 0 kts | 358° |